Terminal Aerodrome Forecast
Issued by NWS

Home | Current Version | Previous Version | Text Only | Print | Product List | Glossary On
Versions: 1 2 3 4 5 6 7 8 9 10 11 12 13 14 15 16 17 18 19 20
145
FTUS43 KAPX 231720
TAFMBL
TAF
KMBL 231720Z 2318/2418 29009KT P6SM BKN008 OVC015
     FM240000 01010KT P6SM BKN008
     FM241500 02009KT P6SM SCT030=

USA.gov is the U.S. government's official web portal to all federal, state and local government web resources and services.